Raugust, Washington
Current Conditions -  °F | °C
As of 1:52 PM on Wednesday 28 Jan 2015 (Local Time) from KMWH Reporting Station
Overcast Overcast  
Wind Chill: 32°   Ceiling: 700
Heat Index: 37°   Visibility: 10mi
Dew Point: 33°   Wind: 7mph
Humidity: 86%   Direction: 10°N
Pressure: 30.43"   Gusts: NA
Location:  47.1758°N, 119.289°W
Report Text: KMWH 282152Z 01006KT 10SM OVC007 03/01 A3043 RMK AO2 SLP315 T00280006
Loading
Personal Weather Stations






























Interactive Weather Map New forecast layout! Learn more

10-Day Weather Forecast

Advertisements
Track Severe Weather on mobile